Sitc Shimizu — VRLG2 — position and weather

sailwx.info

Track history (hours):
 
Tides and Currents Weather Stations Pressure Air Temp Water Temp Dewpoint Dewpoint Depression Visibility Wind Speed Wind Dir Waves Ship Positions

Sitc Shimizu

Last reported at 2018-Feb-19 13:37 UTC. Time now 2018-Feb-23 02:44 UTC.
Position N 14°36' E 120°57'.

Length 143 m; draft 8.3 m.

Type: Ship (hazmat cat C). MMSI: 477335600.

Date/timePositionNaut miles runAvg speedWind from/ knotsBaromVisibWave heightAir tempDewpointWater temp
2018-Feb-19 13:37N 14°36' E 120°57'0 0.0
2018-Feb-19 13:28N 14°36' E 120°57'0 0.0
2018-Feb-19 12:58N 14°36' E 120°57'0 0.0
2018-Feb-19 12:28N 14°36' E 120°57'0 0.0
2018-Feb-19 11:58N 14°36' E 120°57'0 0.1
2018-Feb-19 11:30N 14°36' E 120°57'2 4.3
2018-Feb-19 11:00N 14°36' E 120°54'2 4.7
2018-Feb-19 10:30N 14°36' E 120°52'1 2.4
2018-Feb-19 10:00N 14°35' E 120°51'0 0.8
2018-Feb-19 09:30N 14°35' E 120°51'0 0.4
2018-Feb-19 09:00N 14°35' E 120°51'612.1
2018-Feb-19 08:30N 14°31' E 120°46'713.1
2018-Feb-19 07:56N 14°27' E 120°40'59512.0
2018-Feb-17 06:29N 24°11' E 118°42'612.8
2018-Feb-17 06:00N 24°17' E 118°39'612.3
2018-Feb-17 05:31N 24°22' E 118°36'611.8
2018-Feb-17 05:00N 24°28' E 118°34'3 6.5
2018-Feb-17 04:29N 24°31' E 118°34'0 0.1
2018-Feb-17 03:56N 24°31' E 118°34'0 0.0
2018-Feb-17 03:29N 24°31' E 118°34'0 0.0
2018-Feb-17 02:59N 24°31' E 118°34'0 0.0
2018-Feb-17 02:29N 24°31' E 118°34'0 0.0
2018-Feb-17 01:59N 24°31' E 118°34'0 0.0
2018-Feb-17 01:26N 24°31' E 118°34'0 0.0
2018-Feb-17 00:59N 24°31' E 118°34'0 0.1
2018-Feb-17 00:30N 24°31' E 118°34'1 2.3
2018-Feb-17 00:00N 24°30' E 118°33'1 2.5
2018-Feb-16 23:31N 24°29' E 118°32'0 0.2
2018-Feb-16 22:55N 24°29' E 118°32'0 0.1
2018-Feb-16 22:25N 24°29' E 118°32'0 0.1
2018-Feb-16 21:58N 24°29' E 118°32'0 0.0
2018-Feb-16 21:28N 24°29' E 118°32'0 0.0
2018-Feb-16 20:58N 24°29' E 118°32'0 0.0
2018-Feb-16 20:31N 24°29' E 118°32'0 0.0
2018-Feb-16 19:58N 24°29' E 118°32'0 0.1
2018-Feb-16 19:28N 24°29' E 118°32'0 0.0
2018-Feb-16 19:00N 24°29' E 118°32'0 0.2
2018-Feb-16 18:25N 24°29' E 118°32'0 1.1
2018-Feb-16 18:00N 24°29' E 118°32'3 6.0
2018-Feb-16 17:30N 24°28' E 118°35'44712.4
2018-Feb-15 05:22N 31°06' E 122°26'3312.7
2018-Feb-15 02:46N 31°17' E 121°50'10 0.9
2018-Feb-14 16:10N 31°20' E 121°39'0 1.1
2018-Feb-14 15:58N 31°20' E 121°39'2 4.0
2018-Feb-14 15:30N 31°20' E 121°41'611.8
2018-Feb-14 15:01N 31°16' E 121°46'713.8
2018-Feb-14 14:30N 31°11' E 121°51'815.6
2018-Feb-14 14:01N 31°06' E 121°59'715.0
2018-Feb-14 13:30N 31°04' E 122°07'911.4
2018-Feb-14 12:45N 31°03' E 122°17'310.4
2018-Feb-14 12:27N 31°02' E 122°20'612.9
2018-Feb-14 12:00N 31°01' E 122°27'14 1.3
2018-Feb-14 01:35N 31°01' E 122°43'0 0.1
2018-Feb-14 01:29N 31°01' E 122°43'0 0.1
2018-Feb-14 00:59N 31°01' E 122°43'  
2018-Feb-11 10:17N 34°31' E 130°03'414.0
2018-Feb-11 10:00N 34°29' E 130°07'714.3
2018-Feb-11 09:30N 34°25' E 130°14'714.4
2018-Feb-11 09:00N 34°21' E 130°21'714.2
2018-Feb-11 08:30N 34°16' E 130°28'714.3
2018-Feb-11 08:00N 34°12' E 130°35'713.8
2018-Feb-11 07:30N 34°08' E 130°41'713.9
2018-Feb-11 07:00N 34°04' E 130°48'712.9
2018-Feb-11 06:30N 33°59' E 130°53'4 9.0
2018-Feb-11 06:00N 33°55' E 130°56'510.7
2018-Feb-11 05:30N 33°59' E 130°60'714.5
2018-Feb-11 05:00N 33°55' E 131°07'714.3
2018-Feb-11 04:30N 33°51' E 131°15'714.9
2018-Feb-11 04:01N 33°50' E 131°24'714.8
2018-Feb-11 03:30N 33°48' E 131°32'714.5
2018-Feb-11 03:01N 33°47' E 131°41'713.7
2018-Feb-11 02:30N 33°42' E 131°47'714.0
2018-Feb-11 02:00N 33°36' E 131°50'714.0
2018-Feb-11 01:30N 33°29' E 131°53'713.7
2018-Feb-11 00:59N 33°23' E 131°57'713.1
2018-Feb-11 00:28N 33°17' E 132°01'23912.0
2018-Feb-10 04:35N 34°01' E 136°44'7114.9
2018-Feb-09 23:48N 34°22' E 138°06'515.2
2018-Feb-09 23:30N 34°24' E 138°11'815.1
2018-Feb-09 22:58N 34°27' E 138°20'315.4
2018-Feb-09 22:45N 34°27' E 138°24'6714.1
2018-Feb-09 18:01N 35°01' E 139°34'1912.7
2018-Feb-09 16:30N 35°18' E 139°44'612.5
2018-Feb-09 16:01N 35°24' E 139°41'  
Track history (hours):
 
Tides and Currents Weather Stations Pressure Air Temp Water Temp Dewpoint Dewpoint Depression Visibility Wind Speed Wind Dir Waves Ship Positions

Sitc Shimizu

Last reported at 2018-Feb-19 13:37 UTC. Time now 2018-Feb-23 02:44 UTC.
Position N 14°36' E 120°57'.

Length 143 m; draft 8.3 m.

Type: Ship (hazmat cat C). MMSI: 477335600.

Date/timePositionNaut miles runAvg speedWind from/ knotsBaromVisibWave heightAir tempDewpointWater temp
2018-Feb-19 13:37N 14°36' E 120°57'0 0.0
2018-Feb-19 13:28N 14°36' E 120°57'0 0.0
2018-Feb-19 12:58N 14°36' E 120°57'0 0.0
2018-Feb-19 12:28N 14°36' E 120°57'0 0.0
2018-Feb-19 11:58N 14°36' E 120°57'0 0.1
2018-Feb-19 11:30N 14°36' E 120°57'2 4.3
2018-Feb-19 11:00N 14°36' E 120°54'2 4.7
2018-Feb-19 10:30N 14°36' E 120°52'1 2.4
2018-Feb-19 10:00N 14°35' E 120°51'0 0.8
2018-Feb-19 09:30N 14°35' E 120°51'0 0.4
2018-Feb-19 09:00N 14°35' E 120°51'612.1
2018-Feb-19 08:30N 14°31' E 120°46'713.1
2018-Feb-19 07:56N 14°27' E 120°40'59512.0
2018-Feb-17 06:29N 24°11' E 118°42'612.8
2018-Feb-17 06:00N 24°17' E 118°39'612.3
2018-Feb-17 05:31N 24°22' E 118°36'611.8
2018-Feb-17 05:00N 24°28' E 118°34'3 6.5
2018-Feb-17 04:29N 24°31' E 118°34'0 0.1
2018-Feb-17 03:56N 24°31' E 118°34'0 0.0
2018-Feb-17 03:29N 24°31' E 118°34'0 0.0
2018-Feb-17 02:59N 24°31' E 118°34'0 0.0
2018-Feb-17 02:29N 24°31' E 118°34'0 0.0
2018-Feb-17 01:59N 24°31' E 118°34'0 0.0
2018-Feb-17 01:26N 24°31' E 118°34'0 0.0
2018-Feb-17 00:59N 24°31' E 118°34'0 0.1
2018-Feb-17 00:30N 24°31' E 118°34'1 2.3
2018-Feb-17 00:00N 24°30' E 118°33'1 2.5
2018-Feb-16 23:31N 24°29' E 118°32'0 0.2
2018-Feb-16 22:55N 24°29' E 118°32'0 0.1
2018-Feb-16 22:25N 24°29' E 118°32'0 0.1
2018-Feb-16 21:58N 24°29' E 118°32'0 0.0
2018-Feb-16 21:28N 24°29' E 118°32'0 0.0
2018-Feb-16 20:58N 24°29' E 118°32'0 0.0
2018-Feb-16 20:31N 24°29' E 118°32'0 0.0
2018-Feb-16 19:58N 24°29' E 118°32'0 0.1
2018-Feb-16 19:28N 24°29' E 118°32'0 0.0
2018-Feb-16 19:00N 24°29' E 118°32'0 0.2
2018-Feb-16 18:25N 24°29' E 118°32'0 1.1
2018-Feb-16 18:00N 24°29' E 118°32'3 6.0
2018-Feb-16 17:30N 24°28' E 118°35'44712.4
2018-Feb-15 05:22N 31°06' E 122°26'3312.7
2018-Feb-15 02:46N 31°17' E 121°50'10 0.9
2018-Feb-14 16:10N 31°20' E 121°39'0 1.1
2018-Feb-14 15:58N 31°20' E 121°39'2 4.0
2018-Feb-14 15:30N 31°20' E 121°41'611.8
2018-Feb-14 15:01N 31°16' E 121°46'713.8
2018-Feb-14 14:30N 31°11' E 121°51'815.6
2018-Feb-14 14:01N 31°06' E 121°59'715.0
2018-Feb-14 13:30N 31°04' E 122°07'911.4
2018-Feb-14 12:45N 31°03' E 122°17'310.4
2018-Feb-14 12:27N 31°02' E 122°20'612.9
2018-Feb-14 12:00N 31°01' E 122°27'14 1.3
2018-Feb-14 01:35N 31°01' E 122°43'0 0.1
2018-Feb-14 01:29N 31°01' E 122°43'0 0.1
2018-Feb-14 00:59N 31°01' E 122°43'  
2018-Feb-11 10:17N 34°31' E 130°03'414.0
2018-Feb-11 10:00N 34°29' E 130°07'714.3
2018-Feb-11 09:30N 34°25' E 130°14'714.4
2018-Feb-11 09:00N 34°21' E 130°21'714.2
2018-Feb-11 08:30N 34°16' E 130°28'714.3
2018-Feb-11 08:00N 34°12' E 130°35'713.8
2018-Feb-11 07:30N 34°08' E 130°41'713.9
2018-Feb-11 07:00N 34°04' E 130°48'712.9
2018-Feb-11 06:30N 33°59' E 130°53'4 9.0
2018-Feb-11 06:00N 33°55' E 130°56'510.7
2018-Feb-11 05:30N 33°59' E 130°60'714.5
2018-Feb-11 05:00N 33°55' E 131°07'714.3
2018-Feb-11 04:30N 33°51' E 131°15'714.9
2018-Feb-11 04:01N 33°50' E 131°24'714.8
2018-Feb-11 03:30N 33°48' E 131°32'714.5
2018-Feb-11 03:01N 33°47' E 131°41'713.7
2018-Feb-11 02:30N 33°42' E 131°47'714.0
2018-Feb-11 02:00N 33°36' E 131°50'714.0
2018-Feb-11 01:30N 33°29' E 131°53'713.7
2018-Feb-11 00:59N 33°23' E 131°57'713.1
2018-Feb-11 00:28N 33°17' E 132°01'23912.0
2018-Feb-10 04:35N 34°01' E 136°44'7114.9
2018-Feb-09 23:48N 34°22' E 138°06'515.2
2018-Feb-09 23:30N 34°24' E 138°11'815.1
2018-Feb-09 22:58N 34°27' E 138°20'315.4
2018-Feb-09 22:45N 34°27' E 138°24'6714.1
2018-Feb-09 18:01N 35°01' E 139°34'1912.7
2018-Feb-09 16:30N 35°18' E 139°44'612.5
2018-Feb-09 16:01N 35°24' E 139°41'  

Dump ship's entire track history